Browning, IL (62624)

12:44 AM CDT on August 28, 2015 (GMT -0500)
APRSWXNET | | Change Station
CLOSE
Current Station
Personal Weather Station
Location: Bader, IL
Elevation: 649 ft
Nearby Weather Stations

Elev 649 ft 40.14 °N, 90.42 °W | Updated 32 minutes ago

Clear
Clear
61 °F
Feels Like 61 °F
N
0
Wind Variable Wind from East
Gusts 0.0 mph

Today
High -- | Low -- °F
--% Chance of Precip.
Yesterday
High -- | Low -- °F
Precip. -- in
6:24 AM 7:39 PM
Waxing Gibbous, 96% visible
Pressure 30.10 in
Visibility 10.0 miles
Clouds Clear
Dew Point 60 °F
Humidity 95%
Rainfall in
Snow Depth Not available.
UV 0 out of 12
Pollen 9.80 out of 12
Air Quality Not available.
Flu Activity Not available.
METAR KIJX 280535Z AUTO 13003KT 10SM CLR 16/14 A3010 RMK AO2 T01600143
Pressure 30.10 in
Visibility 10.0 miles
Clouds Clear
Dew Point 60 °F
Humidity 95%
Rainfall in
Snow Depth Not available.
UV 0 out of 12
Pollen 9.80 out of 12
Air Quality Not available.
Flu Activity Not available.
METAR KIJX 280535Z AUTO 13003KT 10SM CLR 16/14 A3010 RMK AO2 T01600143

10-Day Weather Forecast

×

Almanac

Astronomy

Aug. 28, 2015 Rise Set
Actual Time
Civil Twilight
Nautical Twilight
Astronomical Twilight
Moon
Length of Visible Light
Length of Day
Tomorrow will be .
, % of the Moon is Illuminated

Today's Extremes

State Highs State Lows

Community

WunderPhotos

Upload Photos

1,850,341 photos uploaded!

WunderBlogs® & News

Nearby

Air Quality

  Air Quality AQ Index Pollutant
Not available.

Snow Depth

Station Depth Elevation

Earthquake Activity

City Distance Mag. Time & Date
Minimum magnitude displayed is 2.5.

Coastal Water Temperatures

Place Temperature

Stations

Nearby Weather Stations

Station Location Temp. Windchill Dew Point Humidity Wind Precip. Elev Updated Type